Time;durP1;ratioP1;P1;durP2;ratioP2;P2;SDS_P1;SDS_P2;PMS_P1;PMS_P2;Temp;Humidity;BMP_temperature;BMP_pressure;BME280_temperature;BME280_humidity;BME280_pressure;Samples;Min_cycle;Max_cycle;Signal;HPM_P1;HPM_P2
2022/09/01 00:01:28;;;;;;;10.90;7.43;;;;;;;;;;5052786;28;20028;-69
2022/09/01 00:03:57;;;;;;;10.27;6.70;;;;;;;;;;5053098;28;20029;-69
2022/09/01 00:06:23;;;;;;;9.05;6.25;;;;;;;;;;5052781;28;20017;-68
2022/09/01 00:08:50;;;;;;;9.48;6.93;;;;;;;;;;5055243;28;20033;-69
2022/09/01 00:11:17;;;;;;;10.68;6.25;;;;;;;;;;5056882;28;20052;-68
2022/09/01 00:13:43;;;;;;;11.05;6.95;;;;;;;;;;5056580;28;20060;-69
2022/09/01 00:16:12;;;;;;;9.88;7.18;;;;;;;;;;5057081;28;20025;-68
2022/09/01 00:18:40;;;;;;;11.48;6.65;;;;;;;;;;5056756;28;20473;-69
2022/09/01 00:21:07;;;;;;;12.23;7.63;;;;;;;;;;5056452;28;20024;-68
2022/09/01 00:23:33;;;;;;;13.60;7.55;;;;;;;;;;5056657;28;20155;-69
2022/09/01 00:26:00;;;;;;;10.57;6.70;;;;;;;;;;5056327;28;20439;-69
2022/09/01 00:28:26;;;;;;;9.10;6.88;;;;;;;;;;5056636;28;20474;-69
2022/09/01 00:30:52;;;;;;;10.98;7.05;;;;;;;;;;5056220;28;20028;-68
2022/09/01 00:33:18;;;;;;;10.57;6.47;;;;;;;;;;5056444;28;20516;-68
2022/09/01 00:35:44;;;;;;;9.02;6.82;;;;;;;;;;5056170;28;20108;-69
2022/09/01 00:38:10;;;;;;;10.23;7.63;;;;;;;;;;5056573;28;20079;-69
2022/09/01 00:40:37;;;;;;;12.10;7.38;;;;;;;;;;5056053;28;20013;-68
2022/09/01 00:43:21;;;;;;;9.98;7.63;;;;;;;;;;5056569;28;20035;-69
2022/09/01 00:45:50;;;;;;;11.38;7.75;;;;;;;;;;5056237;28;20447;-69
2022/09/01 00:48:16;;;;;;;12.57;8.60;;;;;;;;;;5055927;28;20028;-69
2022/09/01 00:50:42;;;;;;;15.05;8.88;;;;;;;;;;5055868;28;20029;-68
2022/09/01 00:53:09;;;;;;;12.00;7.47;;;;;;;;;;5055832;28;20470;-69
2022/09/01 00:55:37;;;;;;;11.93;8.88;;;;;;;;;;5055649;28;20131;-68
2022/09/01 00:58:04;;;;;;;12.68;8.10;;;;;;;;;;5055680;28;20375;-69
2022/09/01 01:00:32;;;;;;;11.60;8.38;;;;;;;;;;5055635;28;20078;-69
2022/09/01 01:02:57;;;;;;;13.40;9.20;;;;;;;;;;5056207;28;20410;-69
2022/09/01 01:05:26;;;;;;;14.48;8.60;;;;;;;;;;5055584;28;20151;-69
2022/09/01 01:07:54;;;;;;;14.60;9.45;;;;;;;;;;5055582;28;20025;-69
2022/09/01 01:10:21;;;;;;;11.98;9.32;;;;;;;;;;5055800;28;20094;-69
2022/09/01 01:12:50;;;;;;;11.25;7.93;;;;;;;;;;5055475;28;20107;-68
2022/09/01 01:15:17;;;;;;;12.57;8.37;;;;;;;;;;5055750;28;20032;-69
2022/09/01 01:17:43;;;;;;;11.98;8.02;;;;;;;;;;5055282;28;20060;-69
2022/09/01 01:23:04;;;;;;;13.57;8.73;;;;;;;;;;5055364;28;20035;-69
2022/09/01 01:25:30;;;;;;;16.58;10.02;;;;;;;;;;5055215;28;20017;-68
2022/09/01 01:28:11;;;;;;;13.80;8.82;;;;;;;;;;5055440;28;20036;-69
2022/09/01 01:30:38;;;;;;;13.63;8.88;;;;;;;;;;5055386;28;20027;-69
2022/09/01 01:33:05;;;;;;;13.05;8.90;;;;;;;;;;5055080;28;20028;-69
2022/09/01 01:35:32;;;;;;;14.95;8.77;;;;;;;;;;5055081;28;20035;-69
2022/09/01 01:37:59;;;;;;;12.20;8.90;;;;;;;;;;5055228;28;20032;-69
2022/09/01 01:40:27;;;;;;;13.55;9.07;;;;;;;;;;5055287;28;20025;-68
2022/09/01 01:42:54;;;;;;;16.08;9.23;;;;;;;;;;5037614;28;20064;-68
2022/09/01 01:45:22;;;;;;;12.93;9.88;;;;;;;;;;5037041;28;20100;-68
2022/09/01 01:47:52;;;;;;;12.48;8.88;;;;;;;;;;5054894;28;20063;-68
2022/09/01 01:50:22;;;;;;;13.73;10.05;;;;;;;;;;5054783;28;20079;-69
2022/09/01 01:52:48;;;;;;;12.20;8.88;;;;;;;;;;5055059;28;20108;-68
2022/09/01 01:55:15;;;;;;;15.13;9.32;;;;;;;;;;5054683;28;20021;-68
2022/09/01 01:57:48;;;;;;;14.02;8.27;;;;;;;;;;5054584;28;20040;-68
2022/09/01 02:00:18;;;;;;;10.30;7.45;;;;;;;;;;5054837;28;20021;-68
2022/09/01 02:02:51;;;;;;;11.63;8.30;;;;;;;;;;5054564;28;20021;-69
2022/09/01 02:05:29;;;;;;;13.65;9.77;;;;;;;;;;5054524;28;20040;-69
2022/09/01 02:07:58;;;;;;;16.30;10.82;;;;;;;;;;5055019;28;20032;-68
2022/09/01 02:10:29;;;;;;;12.85;9.00;;;;;;;;;;5054690;28;20112;-68
2022/09/01 02:13:02;;;;;;;13.38;8.95;;;;;;;;;;5054706;28;20035;-68
2022/09/01 02:15:29;;;;;;;13.57;9.48;;;;;;;;;;5036235;28;20044;-68
2022/09/01 02:17:59;;;;;;;14.13;9.00;;;;;;;;;;5054224;28;20539;-69
2022/09/01 02:20:28;;;;;;;;;;;;;;;;;;5054719;28;20056;-69
2022/09/01 02:22:54;;;;;;;11.48;8.07;;;;;;;;;;5054220;28;20000;-68
2022/09/01 02:25:21;;;;;;;12.80;8.73;;;;;;;;;;5054075;28;20021;-69
2022/09/01 02:27:49;;;;;;;11.43;8.93;;;;;;;;;;5054068;28;20048;-68
2022/09/01 02:30:16;;;;;;;11.25;8.57;;;;;;;;;;5054058;28;20067;-69
2022/09/01 02:32:42;;;;;;;15.30;9.27;;;;;;;;;;5054264;28;20029;-69
2022/09/01 02:35:08;;;;;;;15.05;8.50;;;;;;;;;;5054217;28;20070;-68
2022/09/01 02:37:35;;;;;;;13.18;9.20;;;;;;;;;;5054101;28;20508;-69
2022/09/01 02:40:01;;;;;;;12.75;8.77;;;;;;;;;;5053862;28;20021;-68
2022/09/01 02:42:29;;;;;;;12.20;8.82;;;;;;;;;;5054293;28;20016;-68
2022/09/01 02:44:55;;;;;;;12.52;8.55;;;;;;;;;;5035900;28;20488;-68
2022/09/01 02:47:25;;;;;;;11.60;7.68;;;;;;;;;;5053713;28;20100;-68
2022/09/01 02:49:51;;;;;;;13.82;9.35;;;;;;;;;;5053996;28;20067;-69
2022/09/01 02:52:19;;;;;;;14.20;9.23;;;;;;;;;;5053621;28;20029;-68
2022/09/01 02:54:47;;;;;;;10.32;7.82;;;;;;;;;;5053646;28;20123;-69
2022/09/01 02:57:14;;;;;;;14.35;8.88;;;;;;;;;;5053199;28;20045;-68
2022/09/01 02:59:41;;;;;;;11.43;9.15;;;;;;;;;;5053426;28;20059;-69
2022/09/01 03:02:08;;;;;;;12.48;8.48;;;;;;;;;;5053682;28;20504;-68
2022/09/01 03:04:34;;;;;;;10.65;8.23;;;;;;;;;;5053414;28;20051;-69
2022/09/01 03:07:01;;;;;;;12.38;9.25;;;;;;;;;;5053938;28;20438;-68
2022/09/01 03:09:27;;;;;;;10.57;8.07;;;;;;;;;;5053660;28;20525;-68
2022/09/01 03:11:54;;;;;;;13.85;8.52;;;;;;;;;;5053316;28;20052;-68
2022/09/01 03:14:21;;;;;;;12.10;8.13;;;;;;;;;;5053343;28;20393;-69
2022/09/01 03:16:47;;;;;;;11.60;8.85;;;;;;;;;;5053260;28;20032;-68
2022/09/01 03:19:13;;;;;;;10.35;8.23;;;;;;;;;;5053172;28;20072;-68
2022/09/01 03:21:41;;;;;;;11.57;7.35;;;;;;;;;;5053212;28;20025;-69
2022/09/01 03:24:08;;;;;;;11.57;8.00;;;;;;;;;;5053149;28;20017;-68
2022/09/01 03:26:35;;;;;;;10.70;7.72;;;;;;;;;;5053143;28;20029;-68
2022/09/01 03:29:01;;;;;;;12.02;7.57;;;;;;;;;;5053072;28;20025;-68
2022/09/01 03:31:27;;;;;;;9.98;7.05;;;;;;;;;;5053163;28;20032;-69
2022/09/01 03:33:55;;;;;;;9.57;6.70;;;;;;;;;;5053647;28;20021;-68
2022/09/01 03:36:21;;;;;;;8.65;6.90;;;;;;;;;;5053079;28;20025;-68
2022/09/01 03:38:48;;;;;;;16.55;8.07;;;;;;;;;;5053244;28;20159;-68
2022/09/01 03:41:16;;;;;;;13.07;9.80;;;;;;;;;;5053324;28;20371;-68
2022/09/01 03:43:43;;;;;;;10.15;8.07;;;;;;;;;;5055912;28;20560;-68
2022/09/01 03:46:15;;;;;;;12.23;8.38;;;;;;;;;;5057388;28;20091;-69
2022/09/01 03:48:41;;;;;;;11.75;7.40;;;;;;;;;;5057111;28;20031;-68
2022/09/01 03:51:08;;;;;;;10.13;7.88;;;;;;;;;;5057623;28;20025;-68
2022/09/01 03:53:37;;;;;;;10.48;7.18;;;;;;;;;;5056981;28;20021;-68
2022/09/01 03:56:04;;;;;;;9.60;7.65;;;;;;;;;;5057187;28;20517;-69
2022/09/01 03:58:31;;;;;;;9.93;7.70;;;;;;;;;;5056880;28;20021;-68
2022/09/01 04:01:00;;;;;;;9.57;7.50;;;;;;;;;;5056837;28;20021;-69
2022/09/01 04:03:30;;;;;;;16.23;9.00;;;;;;;;;;5056839;28;20024;-68
2022/09/01 04:05:57;;;;;;;12.32;8.73;;;;;;;;;;5057071;28;20071;-68
2022/09/01 04:08:29;;;;;;;10.10;8.32;;;;;;;;;;5056919;28;20104;-69
2022/09/01 04:10:57;;;;;;;17.52;8.82;;;;;;;;;;5056718;28;20393;-69
2022/09/01 04:13:36;;;;;;;9.23;7.45;;;;;;;;;;5056695;28;20025;-69
2022/09/01 04:16:09;;;;;;;11.30;7.40;;;;;;;;;;5056588;28;20047;-69
2022/09/01 04:18:35;;;;;;;12.25;8.70;;;;;;;;;;5038311;28;20033;-68
2022/09/01 04:21:01;;;;;;;10.45;8.13;;;;;;;;;;5038608;28;20112;-68
2022/09/01 04:23:32;;;;;;;13.75;8.73;;;;;;;;;;5056432;28;20036;-68
2022/09/01 04:26:08;;;;;;;10.82;8.82;;;;;;;;;;5056739;28;20086;-69
2022/09/01 04:28:39;;;;;;;10.10;8.70;;;;;;;;;;5056946;28;20533;-69
2022/09/01 04:31:08;;;;;;;10.73;8.63;;;;;;;;;;5056850;28;20025;-68
2022/09/01 04:33:43;;;;;;;10.25;7.78;;;;;;;;;;5056823;28;20025;-68
2022/09/01 04:36:18;;;;;;;11.40;8.45;;;;;;;;;;5056264;28;20021;-69
2022/09/01 04:38:45;;;;;;;12.23;8.50;;;;;;;;;;5056085;28;20460;-68
2022/09/01 04:41:16;;;;;;;9.55;7.78;;;;;;;;;;5056370;28;20013;-68
2022/09/01 04:43:46;;;;;;;13.02;8.95;;;;;;;;;;5038487;28;20025;-68
2022/09/01 04:46:13;;;;;;;11.23;7.88;;;;;;;;;;5056031;28;20028;-68
2022/09/01 04:48:41;;;;;;;11.07;7.82;;;;;;;;;;5055972;28;20432;-68
2022/09/01 04:51:09;;;;;;;9.13;7.30;;;;;;;;;;5055945;28;20052;-69
2022/09/01 04:53:35;;;;;;;10.75;8.32;;;;;;;;;;5055742;28;20029;-68
2022/09/01 04:56:08;;;;;;;10.75;7.95;;;;;;;;;;5047031;28;20060;-69
2022/09/01 04:58:35;;;;;;;9.88;7.88;;;;;;;;;;5076026;28;20034;-68
2022/09/01 05:01:06;;;;;;;11.00;8.32;;;;;;;;;;5075701;28;20027;-69
2022/09/01 05:03:32;;;;;;;9.63;8.13;;;;;;;;;;5074238;28;20074;-68
2022/09/01 05:06:01;;;;;;;11.48;8.80;;;;;;;;;;5075641;28;20012;-68
2022/09/01 05:08:27;;;;;;;10.68;8.88;;;;;;;;;;5074360;28;20105;-68
2022/09/01 05:10:55;;;;;;;12.25;8.15;;;;;;;;;;5075894;28;20485;-68
2022/09/01 05:13:28;;;;;;;9.15;7.80;;;;;;;;;;5075589;28;20032;-69
2022/09/01 05:16:05;;;;;;;9.98;7.50;;;;;;;;;;5075563;28;20017;-68
2022/09/01 05:18:31;;;;;;;10.02;7.68;;;;;;;;;;5075648;28;20550;-68
2022/09/01 05:20:57;;;;;;;13.23;8.20;;;;;;;;;;5075401;28;20028;-68
2022/09/01 05:23:25;;;;;;;10.57;7.80;;;;;;;;;;5075862;28;20025;-68
2022/09/01 05:25:53;;;;;;;11.23;7.90;;;;;;;;;;5075329;28;20047;-69
2022/09/01 05:28:23;;;;;;;12.02;8.85;;;;;;;;;;5075328;28;20032;-68
2022/09/01 05:30:52;;;;;;;10.55;8.77;;;;;;;;;;5075543;28;20119;-68
2022/09/01 05:33:20;;;;;;;11.63;8.33;;;;;;;;;;5075517;28;20377;-68
2022/09/01 05:36:00;;;;;;;12.52;9.07;;;;;;;;;;5073882;28;20397;-69
2022/09/01 05:38:26;;;;;;;11.90;8.90;;;;;;;;;;5073482;28;20434;-69
2022/09/01 05:40:56;;;;;;;12.65;8.88;;;;;;;;;;5075034;28;20021;-68
2022/09/01 05:43:25;;;;;;;;;;;;;;;;;;5076426;28;20147;-68
2022/09/01 05:45:52;;;;;;;13.65;8.88;;;;;;;;;;5074978;28;19912;-68
2022/09/01 05:48:20;;;;;;;11.10;8.50;;;;;;;;;;5074904;28;20031;-68
2022/09/01 05:50:48;;;;;;;12.68;8.90;;;;;;;;;;5073567;28;20032;-69
2022/09/01 05:53:16;;;;;;;14.13;9.52;;;;;;;;;;5073474;28;20507;-68
2022/09/01 05:55:45;;;;;;;13.27;8.98;;;;;;;;;;5070905;28;20049;-68
2022/09/01 05:58:13;;;;;;;14.77;9.07;;;;;;;;;;5054917;28;20036;-69
2022/09/01 06:00:45;;;;;;;11.70;8.85;;;;;;;;;;5054769;28;20036;-69
2022/09/01 06:03:13;;;;;;;13.55;7.97;;;;;;;;;;5055144;28;20013;-68
2022/09/01 06:05:41;;;;;;;12.20;9.00;;;;;;;;;;5053896;28;20021;-68
2022/09/01 06:08:09;;;;;;;13.02;8.88;;;;;;;;;;5054757;28;20067;-68
2022/09/01 06:10:38;;;;;;;13.32;9.23;;;;;;;;;;5054960;28;20075;-68
2022/09/01 06:13:05;;;;;;;11.70;9.10;;;;;;;;;;5054652;28;20472;-68
2022/09/01 06:15:32;;;;;;;12.55;9.65;;;;;;;;;;5054371;28;20107;-79
2022/09/01 06:17:59;;;;;;;13.77;9.55;;;;;;;;;;5054014;28;20029;-75
2022/09/01 06:20:26;;;;;;;12.82;9.23;;;;;;;;;;5054067;28;20013;-75
2022/09/01 06:22:52;;;;;;;11.05;8.93;;;;;;;;;;5054010;28;20048;-76
2022/09/01 06:25:19;;;;;;;14.63;10.15;;;;;;;;;;5036223;28;20048;-73
2022/09/01 06:27:46;;;;;;;14.70;10.43;;;;;;;;;;5054038;28;20025;-74
2022/09/01 06:30:16;;;;;;;13.40;10.15;;;;;;;;;;5054044;28;20021;-74
2022/09/01 06:32:43;;;;;;;11.15;9.13;;;;;;;;;;5036010;28;20111;-74
2022/09/01 06:35:10;;;;;;;12.85;10.15;;;;;;;;;;5053826;28;20027;-71
2022/09/01 06:37:37;;;;;;;13.48;9.65;;;;;;;;;;5053821;28;20529;-72
2022/09/01 06:40:04;;;;;;;12.90;8.70;;;;;;;;;;5053839;28;20047;-69
2022/09/01 06:42:34;;;;;;;12.75;10.45;;;;;;;;;;5054064;28;20029;-71
2022/09/01 06:45:00;;;;;;;14.18;9.65;;;;;;;;;;5054275;28;20389;-71
2022/09/01 06:47:27;;;;;;;14.70;10.25;;;;;;;;;;5053751;28;20029;-71
2022/09/01 06:49:57;;;;;;;14.32;8.63;;;;;;;;;;5053939;28;20539;-70
2022/09/01 06:52:23;;;;;;;;;;;;;;;;;;5054139;28;20043;-69
2022/09/01 06:54:51;;;;;;;13.13;9.38;;;;;;;;;;5053598;28;19905;-74
2022/09/01 06:57:17;;;;;;;12.75;9.35;;;;;;;;;;5053262;28;20045;-78
2022/09/01 06:59:43;;;;;;;12.45;9.55;;;;;;;;;;5053540;28;20029;-77
2022/09/01 07:02:15;;;;;;;11.88;8.70;;;;;;;;;;5035272;28;20028;-68
2022/09/01 07:04:43;;;;;;;12.68;9.68;;;;;;;;;;5053016;28;20044;-68
2022/09/01 07:07:11;;;;;;;14.27;9.57;;;;;;;;;;5053681;28;20607;-68
2022/09/01 07:09:37;;;;;;;14.38;8.93;;;;;;;;;;5053622;28;20058;-68
2022/09/01 07:12:03;;;;;;;13.23;9.57;;;;;;;;;;5053063;28;20027;-68
2022/09/01 07:14:30;;;;;;;14.00;9.48;;;;;;;;;;5052959;28;20066;-68
2022/09/01 07:16:57;;;;;;;13.68;8.82;;;;;;;;;;5052875;28;20051;-76
2022/09/01 07:19:24;;;;;;;16.38;9.25;;;;;;;;;;5034915;28;20102;-73
2022/09/01 07:21:51;;;;;;;15.93;9.15;;;;;;;;;;5035345;28;20048;-70
2022/09/01 07:24:19;;;;;;;12.50;7.57;;;;;;;;;;5053214;28;20367;-70
2022/09/01 07:26:48;;;;;;;15.60;8.85;;;;;;;;;;5035304;28;20045;-71
2022/09/01 07:29:16;;;;;;;16.50;8.63;;;;;;;;;;5053124;28;20028;-70
2022/09/01 07:31:43;;;;;;;18.42;8.50;;;;;;;;;;5053321;28;20017;-70
2022/09/01 07:34:11;;;;;;;14.10;8.27;;;;;;;;;;5048663;28;20075;-73
2022/09/01 07:36:40;;;;;;;15.18;8.95;;;;;;;;;;5029064;28;20021;-84
2022/09/01 07:39:07;;;;;;;20.97;10.30;;;;;;;;;;5035051;28;20028;-70
2022/09/01 07:41:33;;;;;;;13.20;8.43;;;;;;;;;;5047693;28;20334;-78
2022/09/01 07:44:01;;;;;;;12.63;9.30;;;;;;;;;;5052622;28;20029;-79
2022/09/01 07:46:31;;;;;;;17.83;9.05;;;;;;;;;;5050277;28;20029;-70
2022/09/01 07:48:57;;;;;;;14.43;9.95;;;;;;;;;;5047453;28;20017;-77
2022/09/01 07:51:25;;;;;;;17.52;10.88;;;;;;;;;;5052872;28;20538;-73
2022/09/01 07:53:51;;;;;;;14.20;9.48;;;;;;;;;;5052698;28;20017;-70
2022/09/01 07:56:21;;;;;;;16.23;10.85;;;;;;;;;;5052153;28;20056;-75
2022/09/01 07:58:47;;;;;;;;;;;;;;;;;;5052095;28;20439;-73
2022/09/01 08:01:17;;;;;;;13.05;10.65;;;;;;;;;;5053104;28;19915;-74
2022/09/01 08:03:44;;;;;;;18.30;11.90;;;;;;;;;;5052031;28;20106;-74
2022/09/01 08:06:11;;;;;;;14.48;10.95;;;;;;;;;;5051471;28;20026;-74
2022/09/01 08:08:38;;;;;;;16.05;10.77;;;;;;;;;;5050681;28;20057;-72
2022/09/01 08:11:05;;;;;;;13.45;11.13;;;;;;;;;;5050854;28;20500;-72
2022/09/01 08:13:31;;;;;;;16.20;11.88;;;;;;;;;;5051924;28;20040;-75
2022/09/01 08:15:57;;;;;;;15.50;11.07;;;;;;;;;;5051648;28;20032;-68
2022/09/01 08:18:23;;;;;;;14.52;11.38;;;;;;;;;;5033969;28;20508;-74
2022/09/01 08:20:49;;;;;;;19.63;11.40;;;;;;;;;;5033000;28;20048;-73
2022/09/01 08:23:17;;;;;;;19.30;11.48;;;;;;;;;;5049447;28;20029;-73
2022/09/01 08:25:44;;;;;;;16.50;10.85;;;;;;;;;;5050291;28;20056;-72
2022/09/01 08:28:10;;;;;;;21.02;11.45;;;;;;;;;;5046864;28;20033;-69
2022/09/01 08:30:38;;;;;;;14.30;10.60;;;;;;;;;;5051715;28;20035;-69
2022/09/01 08:33:04;;;;;;;16.08;11.57;;;;;;;;;;5052690;28;20036;-70
2022/09/01 08:35:30;;;;;;;15.00;10.30;;;;;;;;;;5051704;28;20100;-68
2022/09/01 08:37:57;;;;;;;14.20;9.32;;;;;;;;;;5054572;28;20037;-68
2022/09/01 08:40:23;;;;;;;14.00;9.38;;;;;;;;;;5056191;28;20022;-69
2022/09/01 08:42:49;;;;;;;14.02;8.77;;;;;;;;;;5056719;28;20047;-69
2022/09/01 08:45:32;;;;;;;15.55;9.57;;;;;;;;;;5053613;28;20071;-69
2022/09/01 08:48:06;;;;;;;15.45;10.50;;;;;;;;;;5055449;28;20060;-70
2022/09/01 08:50:34;;;;;;;17.10;10.07;;;;;;;;;;5034550;28;20028;-68
2022/09/01 08:53:32;;;;;;;17.30;9.75;;;;;;;;;;5055941;28;20021;-68
2022/09/01 08:55:59;;;;;;;13.38;9.13;;;;;;;;;;5019262;28;20094;-69
2022/09/01 08:58:29;;;;;;;14.90;8.63;;;;;;;;;;5056445;28;20462;-77
2022/09/01 09:00:55;;;;;;;;;;;;;;;;;;5056309;28;20489;-76
2022/09/01 09:03:26;;;;;;;13.38;8.23;;;;;;;;;;5055788;28;19905;-73
2022/09/01 09:06:06;;;;;;;15.02;9.23;;;;;;;;;;5056081;28;20021;-77
2022/09/01 09:08:32;;;;;;;15.48;9.32;;;;;;;;;;5055000;28;20028;-76
2022/09/01 09:11:04;;;;;;;17.60;9.50;;;;;;;;;;5054428;28;20421;-77
2022/09/01 09:13:49;;;;;;;13.80;8.68;;;;;;;;;;5036628;28;20030;-74
2022/09/01 09:16:18;;;;;;;14.30;8.68;;;;;;;;;;5055475;28;20037;-73
2022/09/01 09:18:48;;;;;;;14.75;9.05;;;;;;;;;;5055606;28;20029;-79
2022/09/01 09:21:20;;;;;;;17.17;8.25;;;;;;;;;;5054461;28;20501;-70
2022/09/01 09:23:48;;;;;;;15.05;7.82;;;;;;;;;;5052288;28;20427;-79
2022/09/01 09:26:14;;;;;;;12.82;8.07;;;;;;;;;;5055302;28;20025;-76
2022/09/01 09:28:40;;;;;;;13.20;8.07;;;;;;;;;;5054031;28;20031;-72
2022/09/01 09:31:25;;;;;;;13.68;8.13;;;;;;;;;;5055205;28;20507;-75
2022/09/01 09:33:51;;;;;;;12.80;7.55;;;;;;;;;;5054310;28;20048;-80
2022/09/01 09:36:20;;;;;;;14.27;7.72;;;;;;;;;;5036784;28;20540;-71
2022/09/01 09:38:46;;;;;;;11.48;7.22;;;;;;;;;;5053810;28;20043;-78
2022/09/01 09:41:16;;;;;;;16.35;7.72;;;;;;;;;;5052697;28;20485;-76
2022/09/01 09:43:48;;;;;;;12.23;6.88;;;;;;;;;;5053366;28;20027;-77
2022/09/01 09:46:32;;;;;;;9.98;6.70;;;;;;;;;;5053607;28;20021;-74
2022/09/01 09:49:07;;;;;;;12.13;7.47;;;;;;;;;;5051820;28;20040;-76
2022/09/01 09:51:34;;;;;;;12.90;7.40;;;;;;;;;;5035977;28;20037;-73
2022/09/01 09:54:13;;;;;;;10.30;6.78;;;;;;;;;;5053872;28;20497;-72
2022/09/01 09:56:48;;;;;;;10.18;6.05;;;;;;;;;;5053285;28;20128;-79
2022/09/01 09:59:23;;;;;;;16.83;6.57;;;;;;;;;;5035585;28;20512;-78
2022/09/01 10:01:50;;;;;;;10.65;6.18;;;;;;;;;;5054607;28;20045;-79
2022/09/01 10:04:30;;;;;;;11.15;6.20;;;;;;;;;;5036835;28;20025;-75
2022/09/01 10:06:56;;;;;;;10.98;5.70;;;;;;;;;;5053429;28;20040;-78
2022/09/01 10:09:23;;;;;;;9.70;5.95;;;;;;;;;;5054481;28;20100;-77
2022/09/01 10:11:51;;;;;;;14.13;7.05;;;;;;;;;;5051729;28;20029;-77
2022/09/01 10:14:19;;;;;;;11.30;6.18;;;;;;;;;;5035992;28;20024;-76
2022/09/01 10:16:47;;;;;;;9.93;5.78;;;;;;;;;;5035703;28;20037;-74
2022/09/01 10:19:14;;;;;;;9.45;6.00;;;;;;;;;;5054216;28;20028;-80
2022/09/01 10:21:41;;;;;;;7.45;5.00;;;;;;;;;;5054930;28;20492;-78
2022/09/01 10:24:26;;;;;;;7.78;4.78;;;;;;;;;;5033980;28;20584;-78
2022/09/01 10:26:58;;;;;;;7.53;4.65;;;;;;;;;;5051391;28;20029;-77
2022/09/01 10:29:39;;;;;;;10.55;5.53;;;;;;;;;;5052596;28;20028;-74
2022/09/01 10:32:10;;;;;;;10.07;4.75;;;;;;;;;;5040816;28;20112;-71
2022/09/01 10:34:37;;;;;;;8.27;5.47;;;;;;;;;;5034084;28;20053;-71
2022/09/01 10:37:03;;;;;;;11.10;5.70;;;;;;;;;;5034312;28;20041;-71
2022/09/01 10:39:29;;;;;;;11.10;5.55;;;;;;;;;;5034202;28;20025;-71
2022/09/01 10:41:57;;;;;;;7.68;5.22;;;;;;;;;;5034202;28;20391;-71
2022/09/01 10:44:32;;;;;;;10.13;5.38;;;;;;;;;;5034721;28;20083;-72
2022/09/01 10:47:01;;;;;;;8.38;5.05;;;;;;;;;;5034414;28;20228;-71
2022/09/01 10:49:27;;;;;;;8.13;4.90;;;;;;;;;;5034116;28;20026;-72
2022/09/01 10:51:54;;;;;;;8.98;4.68;;;;;;;;;;5015846;28;20493;-71
2022/09/01 10:54:38;;;;;;;10.18;4.63;;;;;;;;;;5015995;28;20102;-72
2022/09/01 10:57:12;;;;;;;7.93;4.95;;;;;;;;;;5033359;28;20057;-71
2022/09/01 10:59:39;;;;;;;9.15;4.82;;;;;;;;;;5033808;28;20029;-71
2022/09/01 11:02:08;;;;;;;6.65;3.95;;;;;;;;;;5015882;28;20027;-72
2022/09/01 11:04:38;;;;;;;8.20;4.20;;;;;;;;;;5033653;28;20021;-71
2022/09/01 11:07:07;;;;;;;9.02;4.93;;;;;;;;;;5034057;28;20414;-71
2022/09/01 11:09:33;;;;;;;6.32;4.10;;;;;;;;;;5033522;28;20026;-71
2022/09/01 11:12:17;;;;;;;7.03;4.07;;;;;;;;;;5033431;28;20025;-72
2022/09/01 11:14:52;;;;;;;10.27;5.15;;;;;;;;;;5033751;28;20030;-71
2022/09/01 11:17:20;;;;;;;7.78;4.40;;;;;;;;;;5015695;28;20041;-72
2022/09/01 11:20:10;;;;;;;7.25;4.68;;;;;;;;;;5033265;28;20029;-71
2022/09/01 11:22:36;;;;;;;8.80;5.00;;;;;;;;;;5023210;28;20033;-72
2022/09/01 11:25:20;;;;;;;7.95;4.45;;;;;;;;;;5033315;28;20367;-72
2022/09/01 11:27:49;;;;;;;7.75;4.20;;;;;;;;;;5033843;28;20044;-72
2022/09/01 11:30:36;;;;;;;6.90;4.82;;;;;;;;;;5033337;28;20033;-71
2022/09/01 11:33:12;;;;;;;8.45;5.07;;;;;;;;;;5033343;28;20026;-72
2022/09/01 11:35:39;;;;;;;6.78;4.15;;;;;;;;;;5033509;28;20032;-70
2022/09/01 11:38:07;;;;;;;13.15;5.03;;;;;;;;;;5033370;28;20039;-72
2022/09/01 11:40:34;;;;;;;8.77;4.95;;;;;;;;;;5033425;28;20100;-72
2022/09/01 11:43:04;;;;;;;8.77;4.80;;;;;;;;;;5033627;28;20026;-72
2022/09/01 11:45:32;;;;;;;10.43;4.97;;;;;;;;;;5033855;28;20025;-72
2022/09/01 11:48:01;;;;;;;9.60;4.93;;;;;;;;;;5033121;28;20032;-71
2022/09/01 11:50:32;;;;;;;11.48;5.60;;;;;;;;;;5033663;28;20032;-71
2022/09/01 11:52:58;;;;;;;8.38;5.35;;;;;;;;;;5033033;28;20057;-71
2022/09/01 11:55:28;;;;;;;9.45;5.40;;;;;;;;;;5032785;28;20040;-71
2022/09/01 11:57:54;;;;;;;7.35;5.30;;;;;;;;;;5033257;28;20033;-71
2022/09/01 12:00:25;;;;;;;7.53;4.80;;;;;;;;;;5033217;28;20017;-71
2022/09/01 12:02:53;;;;;;;8.77;5.32;;;;;;;;;;5032970;28;20386;-72
2022/09/01 12:05:39;;;;;;;11.18;5.00;;;;;;;;;;5036237;28;20489;-72
2022/09/01 12:08:16;;;;;;;9.27;4.88;;;;;;;;;;5030946;28;20024;-74
2022/09/01 12:10:43;;;;;;;10.00;5.65;;;;;;;;;;5055998;28;20025;-70
2022/09/01 12:13:09;;;;;;;9.98;5.80;;;;;;;;;;5054388;28;20032;-76
2022/09/01 12:15:40;;;;;;;8.07;5.30;;;;;;;;;;5038716;28;20394;-78
2022/09/01 12:18:09;;;;;;;10.75;6.13;;;;;;;;;;5055217;28;20111;-78
2022/09/01 12:20:39;;;;;;;9.68;5.70;;;;;;;;;;5053885;28;20493;-77
2022/09/01 12:23:17;;;;;;;9.68;6.25;;;;;;;;;;5036939;28;20394;-78
2022/09/01 12:25:44;;;;;;;10.18;5.82;;;;;;;;;;5046579;28;20024;-70
2022/09/01 12:28:11;;;;;;;14.38;5.88;;;;;;;;;;5056954;28;20036;-70
2022/09/01 12:30:39;;;;;;;9.38;6.22;;;;;;;;;;5054076;28;20414;-71
2022/09/01 12:33:07;;;;;;;10.65;5.50;;;;;;;;;;5054871;28;20036;-82
2022/09/01 12:35:34;;;;;;;9.63;5.30;;;;;;;;;;5056809;28;20070;-71
2022/09/01 12:38:18;;;;;;;9.13;5.63;;;;;;;;;;5053984;28;20025;-77
2022/09/01 12:40:44;;;;;;;10.18;6.13;;;;;;;;;;5055149;28;20485;-80
2022/09/01 12:43:11;;;;;;;10.50;6.15;;;;;;;;;;5037566;28;20382;-79
2022/09/01 12:45:41;;;;;;;12.38;6.72;;;;;;;;;;5038935;28;20056;-77
2022/09/01 12:48:23;;;;;;;15.80;7.22;;;;;;;;;;5053082;28;20057;-80
2022/09/01 12:50:49;;;;;;;9.13;6.60;;;;;;;;;;5053943;28;20029;-81
2022/09/01 12:53:18;;;;;;;9.95;6.90;;;;;;;;;;5038126;28;20029;-75
2022/09/01 12:55:54;;;;;;;11.82;6.95;;;;;;;;;;5053015;28;20403;-76
2022/09/01 12:58:24;;;;;;;12.48;7.00;;;;;;;;;;5053772;28;20439;-77
2022/09/01 13:00:54;;;;;;;10.23;6.05;;;;;;;;;;5055225;28;20465;-80
2022/09/01 13:03:20;;;;;;;;;;;;;;;;;;5053701;28;20554;-75
2022/09/01 13:05:57;;;;;;;12.30;6.82;;;;;;;;;;5055732;28;19908;-70
2022/09/01 13:08:25;;;;;;;8.38;5.63;;;;;;;;;;5054410;28;20481;-67
2022/09/01 13:10:59;;;;;;;8.57;6.07;;;;;;;;;;5054985;28;20033;-75
2022/09/01 13:13:26;;;;;;;9.32;5.93;;;;;;;;;;5034118;28;20508;-81
2022/09/01 13:15:54;;;;;;;10.18;6.07;;;;;;;;;;5036549;28;20048;-76
2022/09/01 13:18:21;;;;;;;9.90;6.10;;;;;;;;;;5055684;28;20061;-78
2022/09/01 13:20:48;;;;;;;11.88;5.60;;;;;;;;;;5046055;28;20021;-79
2022/09/01 13:23:14;;;;;;;9.65;5.30;;;;;;;;;;5035454;28;20025;-75
2022/09/01 13:25:43;;;;;;;9.85;5.60;;;;;;;;;;5050825;28;20043;-72
2022/09/01 13:28:10;;;;;;;10.05;5.68;;;;;;;;;;5020060;28;20040;-73
2022/09/01 13:30:36;;;;;;;11.85;6.22;;;;;;;;;;5052838;28;20021;-80
2022/09/01 13:33:02;;;;;;;11.93;6.40;;;;;;;;;;5053335;28;20033;-77
2022/09/01 13:35:28;;;;;;;14.13;6.63;;;;;;;;;;5053999;28;20088;-82
2022/09/01 13:37:54;;;;;;;10.55;6.00;;;;;;;;;;5051825;28;20115;-76
2022/09/01 13:40:21;;;;;;;9.90;6.50;;;;;;;;;;5055377;28;20104;-74
2022/09/01 13:42:51;;;;;;;8.05;5.20;;;;;;;;;;5050305;28;20036;-74
2022/09/01 13:45:18;;;;;;;9.27;5.70;;;;;;;;;;5053938;28;20021;-76
2022/09/01 13:47:45;;;;;;;8.55;5.65;;;;;;;;;;5051392;28;20032;-76
2022/09/01 13:50:12;;;;;;;10.52;5.55;;;;;;;;;;5036999;28;20027;-74
2022/09/01 13:52:42;;;;;;;13.15;6.55;;;;;;;;;;5050619;28;20318;-69
2022/09/01 13:55:12;;;;;;;9.90;5.93;;;;;;;;;;5053221;28;20461;-68
2022/09/01 13:57:38;;;;;;;8.85;5.88;;;;;;;;;;5053751;28;20056;-68
2022/09/01 14:00:07;;;;;;;12.05;5.78;;;;;;;;;;5054679;28;20028;-69
2022/09/01 14:02:34;;;;;;;10.35;5.50;;;;;;;;;;5036698;28;20029;-69
2022/09/01 14:05:00;;;;;;;9.65;5.75;;;;;;;;;;5051044;28;20048;-75
2022/09/01 14:07:26;;;;;;;10.40;6.35;;;;;;;;;;5052740;28;20033;-71
2022/09/01 14:09:52;;;;;;;8.50;6.30;;;;;;;;;;5052322;28;20421;-79
2022/09/01 14:12:18;;;;;;;12.75;6.70;;;;;;;;;;5054153;28;20102;-78
2022/09/01 14:14:44;;;;;;;10.02;5.97;;;;;;;;;;5054176;28;20485;-73
2022/09/01 14:17:10;;;;;;;9.95;5.65;;;;;;;;;;5054121;28;20063;-75
2022/09/01 14:19:36;;;;;;;8.75;5.18;;;;;;;;;;5053093;28;20078;-71
2022/09/01 14:22:04;;;;;;;10.77;4.38;;;;;;;;;;5051618;28;20029;-72
2022/09/01 14:24:31;;;;;;;8.13;3.97;;;;;;;;;;5052407;28;20059;-72
2022/09/01 14:26:57;;;;;;;8.15;4.05;;;;;;;;;;5052474;28;20025;-73
2022/09/01 14:29:23;;;;;;;5.32;3.80;;;;;;;;;;5054189;28;20460;-77
2022/09/01 14:31:49;;;;;;;7.03;4.50;;;;;;;;;;5053262;28;20053;-74
2022/09/01 14:34:16;;;;;;;8.48;4.25;;;;;;;;;;5052160;28;20048;-81
2022/09/01 14:36:42;;;;;;;7.90;4.00;;;;;;;;;;5031597;28;20030;-76
2022/09/01 14:39:08;;;;;;;7.10;4.32;;;;;;;;;;5053943;28;20025;-78
2022/09/01 14:41:34;;;;;;;6.22;4.28;;;;;;;;;;5032544;28;20166;-70
2022/09/01 14:44:01;;;;;;;8.15;4.38;;;;;;;;;;5051170;28;20502;-84
2022/09/01 14:46:29;;;;;;;5.40;4.00;;;;;;;;;;5034007;28;20374;-73